sensor_id;sensor_type;location;lat;lon;timestamp;P1;durP1;ratioP1;P2;durP2;ratioP2
13163;SDS011;6647;53.688;10.746;2022-08-25T00:00:52;4.63;;;3.87;;
13163;SDS011;6647;53.688;10.746;2022-08-25T00:02:13;8.13;;;4.37;;
13163;SDS011;6647;53.688;10.746;2022-08-25T00:03:34;4.13;;;3.73;;
13163;SDS011;6647;53.688;10.746;2022-08-25T00:04:55;5.50;;;3.90;;
13163;SDS011;6647;53.688;10.746;2022-08-25T00:06:16;4.33;;;3.53;;
13163;SDS011;6647;53.688;10.746;2022-08-25T00:07:37;4.80;;;3.40;;
13163;SDS011;6647;53.688;10.746;2022-08-25T00:08:58;4.90;;;3.20;;
13163;SDS011;6647;53.688;10.746;2022-08-25T00:10:19;10.73;;;4.20;;
13163;SDS011;6647;53.688;10.746;2022-08-25T00:11:41;4.37;;;3.83;;
13163;SDS011;6647;53.688;10.746;2022-08-25T00:13:02;5.03;;;3.67;;
13163;SDS011;6647;53.688;10.746;2022-08-25T00:14:30;7.10;;;3.90;;
13163;SDS011;6647;53.688;10.746;2022-08-25T00:15:53;5.23;;;3.40;;
13163;SDS011;6647;53.688;10.746;2022-08-25T00:17:14;5.93;;;4.20;;
13163;SDS011;6647;53.688;10.746;2022-08-25T00:18:36;6.17;;;3.37;;
13163;SDS011;6647;53.688;10.746;2022-08-25T00:19:58;5.90;;;3.20;;
13163;SDS011;6647;53.688;10.746;2022-08-25T00:21:19;5.67;;;3.90;;
13163;SDS011;6647;53.688;10.746;2022-08-25T00:22:40;6.00;;;3.97;;
13163;SDS011;6647;53.688;10.746;2022-08-25T00:24:01;5.17;;;3.50;;
13163;SDS011;6647;53.688;10.746;2022-08-25T00:25:23;5.53;;;3.57;;
13163;SDS011;6647;53.688;10.746;2022-08-25T00:26:45;6.10;;;3.80;;
13163;SDS011;6647;53.688;10.746;2022-08-25T00:28:07;6.83;;;3.63;;
13163;SDS011;6647;53.688;10.746;2022-08-25T00:29:29;5.33;;;3.77;;
13163;SDS011;6647;53.688;10.746;2022-08-25T00:30:51;4.17;;;3.77;;
13163;SDS011;6647;53.688;10.746;2022-08-25T00:32:12;4.03;;;3.57;;
13163;SDS011;6647;53.688;10.746;2022-08-25T00:33:33;7.13;;;3.57;;
13163;SDS011;6647;53.688;10.746;2022-08-25T00:34:54;8.33;;;4.10;;
13163;SDS011;6647;53.688;10.746;2022-08-25T00:36:15;7.73;;;3.30;;
13163;SDS011;6647;53.688;10.746;2022-08-25T00:37:38;6.77;;;3.77;;
13163;SDS011;6647;53.688;10.746;2022-08-25T00:38:59;5.57;;;3.53;;
13163;SDS011;6647;53.688;10.746;2022-08-25T00:40:20;5.70;;;3.63;;
13163;SDS011;6647;53.688;10.746;2022-08-25T00:41:42;5.07;;;3.73;;
13163;SDS011;6647;53.688;10.746;2022-08-25T00:43:04;7.30;;;3.57;;
13163;SDS011;6647;53.688;10.746;2022-08-25T00:44:27;3.77;;;3.37;;
13163;SDS011;6647;53.688;10.746;2022-08-25T00:45:50;7.60;;;3.80;;
13163;SDS011;6647;53.688;10.746;2022-08-25T00:47:10;6.07;;;3.57;;
13163;SDS011;6647;53.688;10.746;2022-08-25T00:48:32;5.73;;;3.40;;
13163;SDS011;6647;53.688;10.746;2022-08-25T00:49:55;6.27;;;3.60;;
13163;SDS011;6647;53.688;10.746;2022-08-25T00:51:20;6.07;;;3.27;;
13163;SDS011;6647;53.688;10.746;2022-08-25T00:52:55;5.53;;;4.00;;
13163;SDS011;6647;53.688;10.746;2022-08-25T00:54:21;4.33;;;3.70;;
13163;SDS011;6647;53.688;10.746;2022-08-25T00:55:44;4.23;;;3.27;;
13163;SDS011;6647;53.688;10.746;2022-08-25T00:57:05;4.63;;;3.17;;
13163;SDS011;6647;53.688;10.746;2022-08-25T00:58:28;8.07;;;3.60;;
13163;SDS011;6647;53.688;10.746;2022-08-25T00:59:50;5.57;;;4.30;;
13163;SDS011;6647;53.688;10.746;2022-08-25T01:01:12;5.20;;;3.30;;
13163;SDS011;6647;53.688;10.746;2022-08-25T01:02:33;4.83;;;3.93;;
13163;SDS011;6647;53.688;10.746;2022-08-25T01:03:54;6.33;;;3.90;;
13163;SDS011;6647;53.688;10.746;2022-08-25T01:05:15;6.40;;;3.83;;
13163;SDS011;6647;53.688;10.746;2022-08-25T01:06:38;4.60;;;3.40;;
13163;SDS011;6647;53.688;10.746;2022-08-25T01:08:03;6.27;;;4.00;;
13163;SDS011;6647;53.688;10.746;2022-08-25T01:09:26;11.00;;;4.20;;
13163;SDS011;6647;53.688;10.746;2022-08-25T01:10:51;6.20;;;3.80;;
13163;SDS011;6647;53.688;10.746;2022-08-25T01:12:12;5.13;;;3.30;;
13163;SDS011;6647;53.688;10.746;2022-08-25T01:13:52;6.33;;;3.90;;
13163;SDS011;6647;53.688;10.746;2022-08-25T01:15:15;4.70;;;3.60;;
13163;SDS011;6647;53.688;10.746;2022-08-25T01:16:37;4.80;;;3.77;;
13163;SDS011;6647;53.688;10.746;2022-08-25T01:17:59;5.10;;;3.90;;
13163;SDS011;6647;53.688;10.746;2022-08-25T01:19:21;3.83;;;3.10;;
13163;SDS011;6647;53.688;10.746;2022-08-25T01:20:42;7.60;;;3.90;;
13163;SDS011;6647;53.688;10.746;2022-08-25T01:22:03;7.03;;;3.77;;
13163;SDS011;6647;53.688;10.746;2022-08-25T01:23:25;4.47;;;3.40;;
13163;SDS011;6647;53.688;10.746;2022-08-25T01:24:48;9.77;;;4.10;;
13163;SDS011;6647;53.688;10.746;2022-08-25T01:26:15;5.07;;;3.77;;
13163;SDS011;6647;53.688;10.746;2022-08-25T01:27:41;5.47;;;3.63;;
13163;SDS011;6647;53.688;10.746;2022-08-25T01:29:04;5.10;;;3.73;;
13163;SDS011;6647;53.688;10.746;2022-08-25T01:30:44;3.87;;;3.47;;
13163;SDS011;6647;53.688;10.746;2022-08-25T01:32:06;8.93;;;3.90;;
13163;SDS011;6647;53.688;10.746;2022-08-25T01:33:30;8.13;;;4.00;;
13163;SDS011;6647;53.688;10.746;2022-08-25T01:34:51;7.90;;;4.27;;
13163;SDS011;6647;53.688;10.746;2022-08-25T01:36:11;5.37;;;3.10;;
13163;SDS011;6647;53.688;10.746;2022-08-25T01:37:37;7.70;;;4.40;;
13163;SDS011;6647;53.688;10.746;2022-08-25T01:38:59;4.37;;;3.97;;
13163;SDS011;6647;53.688;10.746;2022-08-25T01:40:19;3.53;;;3.07;;
13163;SDS011;6647;53.688;10.746;2022-08-25T01:41:53;7.13;;;3.90;;
13163;SDS011;6647;53.688;10.746;2022-08-25T01:43:34;9.07;;;4.33;;
13163;SDS011;6647;53.688;10.746;2022-08-25T01:44:57;4.73;;;3.87;;
13163;SDS011;6647;53.688;10.746;2022-08-25T01:46:18;5.73;;;3.77;;
13163;SDS011;6647;53.688;10.746;2022-08-25T01:47:39;4.47;;;4.07;;
13163;SDS011;6647;53.688;10.746;2022-08-25T01:49:00;5.80;;;4.00;;
13163;SDS011;6647;53.688;10.746;2022-08-25T01:50:22;8.07;;;4.90;;
13163;SDS011;6647;53.688;10.746;2022-08-25T01:51:48;6.37;;;4.00;;
13163;SDS011;6647;53.688;10.746;2022-08-25T01:53:21;6.83;;;4.40;;
13163;SDS011;6647;53.688;10.746;2022-08-25T01:54:46;10.90;;;4.40;;
13163;SDS011;6647;53.688;10.746;2022-08-25T01:56:10;4.57;;;3.70;;
13163;SDS011;6647;53.688;10.746;2022-08-25T01:57:33;7.20;;;3.53;;
13163;SDS011;6647;53.688;10.746;2022-08-25T01:58:54;7.80;;;4.53;;
13163;SDS011;6647;53.688;10.746;2022-08-25T02:00:16;4.60;;;3.77;;
13163;SDS011;6647;53.688;10.746;2022-08-25T02:01:38;7.27;;;4.17;;
13163;SDS011;6647;53.688;10.746;2022-08-25T02:02:59;8.03;;;3.63;;
13163;SDS011;6647;53.688;10.746;2022-08-25T02:04:20;5.23;;;4.60;;
13163;SDS011;6647;53.688;10.746;2022-08-25T02:05:41;4.23;;;3.80;;
13163;SDS011;6647;53.688;10.746;2022-08-25T02:07:04;7.93;;;4.80;;
13163;SDS011;6647;53.688;10.746;2022-08-25T02:08:26;5.03;;;3.70;;
13163;SDS011;6647;53.688;10.746;2022-08-25T02:09:47;9.57;;;4.67;;
13163;SDS011;6647;53.688;10.746;2022-08-25T02:11:12;4.90;;;3.90;;
13163;SDS011;6647;53.688;10.746;2022-08-25T02:12:33;6.73;;;4.47;;
13163;SDS011;6647;53.688;10.746;2022-08-25T02:13:55;7.53;;;4.27;;
13163;SDS011;6647;53.688;10.746;2022-08-25T02:15:16;7.17;;;4.40;;
13163;SDS011;6647;53.688;10.746;2022-08-25T02:16:37;5.53;;;4.80;;
13163;SDS011;6647;53.688;10.746;2022-08-25T02:18:00;7.37;;;4.10;;
13163;SDS011;6647;53.688;10.746;2022-08-25T02:19:21;6.93;;;4.53;;
13163;SDS011;6647;53.688;10.746;2022-08-25T02:20:43;9.33;;;4.60;;
13163;SDS011;6647;53.688;10.746;2022-08-25T02:22:04;6.63;;;4.60;;
13163;SDS011;6647;53.688;10.746;2022-08-25T02:23:26;9.20;;;4.73;;
13163;SDS011;6647;53.688;10.746;2022-08-25T02:24:47;12.00;;;5.07;;
13163;SDS011;6647;53.688;10.746;2022-08-25T02:26:08;7.33;;;4.90;;
13163;SDS011;6647;53.688;10.746;2022-08-25T02:27:29;13.20;;;4.50;;
13163;SDS011;6647;53.688;10.746;2022-08-25T02:28:50;12.50;;;5.43;;
13163;SDS011;6647;53.688;10.746;2022-08-25T02:30:12;5.40;;;4.17;;
13163;SDS011;6647;53.688;10.746;2022-08-25T02:31:34;14.53;;;5.00;;
13163;SDS011;6647;53.688;10.746;2022-08-25T02:32:55;5.50;;;4.60;;
13163;SDS011;6647;53.688;10.746;2022-08-25T02:34:16;10.43;;;5.40;;
13163;SDS011;6647;53.688;10.746;2022-08-25T02:35:37;9.10;;;5.70;;
13163;SDS011;6647;53.688;10.746;2022-08-25T02:36:59;8.17;;;5.70;;
13163;SDS011;6647;53.688;10.746;2022-08-25T02:38:19;11.43;;;6.33;;
13163;SDS011;6647;53.688;10.746;2022-08-25T02:39:41;9.77;;;5.70;;
13163;SDS011;6647;53.688;10.746;2022-08-25T02:41:07;10.27;;;6.63;;
13163;SDS011;6647;53.688;10.746;2022-08-25T02:42:32;12.73;;;6.37;;
13163;SDS011;6647;53.688;10.746;2022-08-25T02:43:53;7.93;;;6.00;;
13163;SDS011;6647;53.688;10.746;2022-08-25T02:45:14;9.77;;;6.43;;
13163;SDS011;6647;53.688;10.746;2022-08-25T02:46:37;12.00;;;5.93;;
13163;SDS011;6647;53.688;10.746;2022-08-25T02:47:58;10.30;;;6.00;;
13163;SDS011;6647;53.688;10.746;2022-08-25T02:49:18;13.67;;;7.47;;
13163;SDS011;6647;53.688;10.746;2022-08-25T02:50:39;11.13;;;6.90;;
13163;SDS011;6647;53.688;10.746;2022-08-25T02:52:05;11.10;;;6.50;;
13163;SDS011;6647;53.688;10.746;2022-08-25T02:53:27;9.10;;;6.17;;
13163;SDS011;6647;53.688;10.746;2022-08-25T02:54:48;13.35;;;8.00;;
13163;SDS011;6647;53.688;10.746;2022-08-25T02:56:10;9.27;;;6.43;;
13163;SDS011;6647;53.688;10.746;2022-08-25T02:57:31;11.52;;;7.00;;
13163;SDS011;6647;53.688;10.746;2022-08-25T02:58:52;8.90;;;6.70;;
13163;SDS011;6647;53.688;10.746;2022-08-25T03:00:14;13.38;;;8.38;;
13163;SDS011;6647;53.688;10.746;2022-08-25T03:01:36;10.70;;;7.38;;
13163;SDS011;6647;53.688;10.746;2022-08-25T03:02:56;13.23;;;7.15;;
13163;SDS011;6647;53.688;10.746;2022-08-25T03:04:17;11.30;;;8.20;;
13163;SDS011;6647;53.688;10.746;2022-08-25T03:05:39;14.10;;;9.15;;
13163;SDS011;6647;53.688;10.746;2022-08-25T03:07:00;12.50;;;8.30;;
13163;SDS011;6647;53.688;10.746;2022-08-25T03:08:21;11.43;;;8.45;;
13163;SDS011;6647;53.688;10.746;2022-08-25T03:09:42;15.45;;;8.15;;
13163;SDS011;6647;53.688;10.746;2022-08-25T03:11:04;16.40;;;9.38;;
13163;SDS011;6647;53.688;10.746;2022-08-25T03:12:25;13.27;;;9.00;;
13163;SDS011;6647;53.688;10.746;2022-08-25T03:13:46;16.85;;;9.15;;
13163;SDS011;6647;53.688;10.746;2022-08-25T03:15:10;10.18;;;8.63;;
13163;SDS011;6647;53.688;10.746;2022-08-25T03:16:34;13.48;;;9.20;;
13163;SDS011;6647;53.688;10.746;2022-08-25T03:17:55;14.25;;;8.43;;
13163;SDS011;6647;53.688;10.746;2022-08-25T03:19:17;12.73;;;9.23;;
13163;SDS011;6647;53.688;10.746;2022-08-25T03:20:38;19.15;;;8.13;;
13163;SDS011;6647;53.688;10.746;2022-08-25T03:21:59;20.67;;;8.00;;
13163;SDS011;6647;53.688;10.746;2022-08-25T03:23:19;15.90;;;8.55;;
13163;SDS011;6647;53.688;10.746;2022-08-25T03:24:41;10.13;;;8.82;;
13163;SDS011;6647;53.688;10.746;2022-08-25T03:26:01;13.00;;;8.30;;
13163;SDS011;6647;53.688;10.746;2022-08-25T03:27:41;14.05;;;8.75;;
13163;SDS011;6647;53.688;10.746;2022-08-25T03:29:02;12.55;;;8.75;;
13163;SDS011;6647;53.688;10.746;2022-08-25T03:30:26;10.55;;;7.88;;
13163;SDS011;6647;53.688;10.746;2022-08-25T03:31:47;17.00;;;9.07;;
13163;SDS011;6647;53.688;10.746;2022-08-25T03:33:08;13.30;;;8.32;;
13163;SDS011;6647;53.688;10.746;2022-08-25T03:34:30;11.57;;;7.88;;
13163;SDS011;6647;53.688;10.746;2022-08-25T03:35:50;10.80;;;7.75;;
13163;SDS011;6647;53.688;10.746;2022-08-25T03:37:11;10.45;;;8.00;;
13163;SDS011;6647;53.688;10.746;2022-08-25T03:38:33;10.68;;;7.70;;
13163;SDS011;6647;53.688;10.746;2022-08-25T03:39:54;10.88;;;7.90;;
13163;SDS011;6647;53.688;10.746;2022-08-25T03:41:16;9.07;;;7.57;;
13163;SDS011;6647;53.688;10.746;2022-08-25T03:42:41;14.73;;;8.77;;
13163;SDS011;6647;53.688;10.746;2022-08-25T03:44:04;12.80;;;10.13;;
13163;SDS011;6647;53.688;10.746;2022-08-25T03:45:26;12.43;;;9.60;;
13163;SDS011;6647;53.688;10.746;2022-08-25T03:46:48;15.30;;;9.80;;
13163;SDS011;6647;53.688;10.746;2022-08-25T03:48:11;14.63;;;9.65;;
13163;SDS011;6647;53.688;10.746;2022-08-25T03:49:32;11.20;;;9.70;;
13163;SDS011;6647;53.688;10.746;2022-08-25T03:50:53;13.35;;;10.65;;
13163;SDS011;6647;53.688;10.746;2022-08-25T03:52:14;12.18;;;10.02;;
13163;SDS011;6647;53.688;10.746;2022-08-25T03:53:36;13.38;;;10.38;;
13163;SDS011;6647;53.688;10.746;2022-08-25T03:54:56;16.25;;;10.18;;
13163;SDS011;6647;53.688;10.746;2022-08-25T03:56:18;12.85;;;10.85;;
13163;SDS011;6647;53.688;10.746;2022-08-25T03:57:39;15.63;;;10.68;;
13163;SDS011;6647;53.688;10.746;2022-08-25T03:59:00;13.55;;;10.00;;
13163;SDS011;6647;53.688;10.746;2022-08-25T04:00:21;23.58;;;11.68;;
13163;SDS011;6647;53.688;10.746;2022-08-25T04:01:43;19.50;;;11.90;;
13163;SDS011;6647;53.688;10.746;2022-08-25T04:03:05;18.23;;;11.35;;
13163;SDS011;6647;53.688;10.746;2022-08-25T04:04:26;15.00;;;10.25;;
13163;SDS011;6647;53.688;10.746;2022-08-25T04:05:47;16.83;;;10.30;;
13163;SDS011;6647;53.688;10.746;2022-08-25T04:07:07;13.88;;;10.32;;
13163;SDS011;6647;53.688;10.746;2022-08-25T04:08:29;19.85;;;11.43;;
13163;SDS011;6647;53.688;10.746;2022-08-25T04:09:50;14.13;;;10.85;;
13163;SDS011;6647;53.688;10.746;2022-08-25T04:11:18;16.35;;;11.75;;
13163;SDS011;6647;53.688;10.746;2022-08-25T04:12:41;18.58;;;12.70;;
13163;SDS011;6647;53.688;10.746;2022-08-25T04:14:06;18.17;;;12.40;;
13163;SDS011;6647;53.688;10.746;2022-08-25T04:15:27;18.48;;;12.40;;
13163;SDS011;6647;53.688;10.746;2022-08-25T04:16:48;14.93;;;9.80;;
13163;SDS011;6647;53.688;10.746;2022-08-25T04:18:10;19.80;;;10.35;;
13163;SDS011;6647;53.688;10.746;2022-08-25T04:19:30;14.20;;;11.40;;
13163;SDS011;6647;53.688;10.746;2022-08-25T04:20:58;12.13;;;10.27;;
13163;SDS011;6647;53.688;10.746;2022-08-25T04:22:21;14.20;;;10.70;;
13163;SDS011;6647;53.688;10.746;2022-08-25T04:23:43;17.98;;;12.40;;
13163;SDS011;6647;53.688;10.746;2022-08-25T04:25:06;16.77;;;13.18;;
13163;SDS011;6647;53.688;10.746;2022-08-25T04:26:28;21.65;;;12.60;;
13163;SDS011;6647;53.688;10.746;2022-08-25T04:27:52;13.43;;;11.95;;
13163;SDS011;6647;53.688;10.746;2022-08-25T04:29:15;13.25;;;10.88;;
13163;SDS011;6647;53.688;10.746;2022-08-25T04:30:41;16.15;;;10.05;;
13163;SDS011;6647;53.688;10.746;2022-08-25T04:32:03;15.77;;;12.20;;
13163;SDS011;6647;53.688;10.746;2022-08-25T04:33:24;16.88;;;12.48;;
13163;SDS011;6647;53.688;10.746;2022-08-25T04:34:44;17.33;;;13.70;;
13163;SDS011;6647;53.688;10.746;2022-08-25T04:36:06;17.33;;;12.60;;
13163;SDS011;6647;53.688;10.746;2022-08-25T04:37:28;22.38;;;13.27;;
13163;SDS011;6647;53.688;10.746;2022-08-25T04:38:49;18.58;;;13.15;;
13163;SDS011;6647;53.688;10.746;2022-08-25T04:40:10;22.20;;;13.05;;
13163;SDS011;6647;53.688;10.746;2022-08-25T04:41:31;16.00;;;11.55;;
13163;SDS011;6647;53.688;10.746;2022-08-25T04:42:52;16.27;;;11.60;;
13163;SDS011;6647;53.688;10.746;2022-08-25T04:44:13;13.05;;;10.50;;
13163;SDS011;6647;53.688;10.746;2022-08-25T04:45:38;15.93;;;11.73;;
13163;SDS011;6647;53.688;10.746;2022-08-25T04:46:59;15.45;;;11.85;;
13163;SDS011;6647;53.688;10.746;2022-08-25T04:48:21;22.88;;;11.63;;
13163;SDS011;6647;53.688;10.746;2022-08-25T04:49:42;16.75;;;11.38;;
13163;SDS011;6647;53.688;10.746;2022-08-25T04:51:03;15.02;;;10.70;;
13163;SDS011;6647;53.688;10.746;2022-08-25T04:52:25;17.67;;;13.73;;
13163;SDS011;6647;53.688;10.746;2022-08-25T04:53:46;24.15;;;12.93;;
13163;SDS011;6647;53.688;10.746;2022-08-25T04:55:07;18.02;;;13.40;;
13163;SDS011;6647;53.688;10.746;2022-08-25T04:56:28;12.90;;;10.65;;
13163;SDS011;6647;53.688;10.746;2022-08-25T04:57:49;13.38;;;11.55;;
13163;SDS011;6647;53.688;10.746;2022-08-25T04:59:12;16.10;;;12.43;;
13163;SDS011;6647;53.688;10.746;2022-08-25T05:00:34;19.95;;;13.93;;
13163;SDS011;6647;53.688;10.746;2022-08-25T05:01:56;13.90;;;11.98;;
13163;SDS011;6647;53.688;10.746;2022-08-25T05:03:18;18.48;;;12.80;;
13163;SDS011;6647;53.688;10.746;2022-08-25T05:04:39;18.58;;;13.38;;
13163;SDS011;6647;53.688;10.746;2022-08-25T05:06:00;16.40;;;14.20;;
13163;SDS011;6647;53.688;10.746;2022-08-25T05:07:21;18.83;;;13.38;;
13163;SDS011;6647;53.688;10.746;2022-08-25T05:08:42;18.80;;;12.65;;
13163;SDS011;6647;53.688;10.746;2022-08-25T05:10:03;19.45;;;13.95;;
13163;SDS011;6647;53.688;10.746;2022-08-25T05:11:25;24.83;;;12.88;;
13163;SDS011;6647;53.688;10.746;2022-08-25T05:12:45;18.35;;;13.52;;
13163;SDS011;6647;53.688;10.746;2022-08-25T05:14:07;16.98;;;14.02;;
13163;SDS011;6647;53.688;10.746;2022-08-25T05:15:31;20.90;;;14.05;;
13163;SDS011;6647;53.688;10.746;2022-08-25T05:17:10;20.40;;;12.85;;
13163;SDS011;6647;53.688;10.746;2022-08-25T05:18:31;23.40;;;13.27;;
13163;SDS011;6647;53.688;10.746;2022-08-25T05:19:53;20.25;;;13.88;;
13163;SDS011;6647;53.688;10.746;2022-08-25T05:21:17;19.45;;;12.40;;
13163;SDS011;6647;53.688;10.746;2022-08-25T05:22:43;22.25;;;15.07;;
13163;SDS011;6647;53.688;10.746;2022-08-25T05:24:05;17.42;;;14.05;;
13163;SDS011;6647;53.688;10.746;2022-08-25T05:25:27;16.58;;;13.98;;
13163;SDS011;6647;53.688;10.746;2022-08-25T05:26:48;19.98;;;15.05;;
13163;SDS011;6647;53.688;10.746;2022-08-25T05:28:09;30.42;;;15.35;;
13163;SDS011;6647;53.688;10.746;2022-08-25T05:29:30;24.05;;;13.75;;
13163;SDS011;6647;53.688;10.746;2022-08-25T05:30:56;15.52;;;13.77;;
13163;SDS011;6647;53.688;10.746;2022-08-25T05:32:18;19.63;;;13.95;;
13163;SDS011;6647;53.688;10.746;2022-08-25T05:33:39;17.42;;;12.65;;
13163;SDS011;6647;53.688;10.746;2022-08-25T05:35:02;22.58;;;14.75;;
13163;SDS011;6647;53.688;10.746;2022-08-25T05:36:24;16.85;;;14.75;;
13163;SDS011;6647;53.688;10.746;2022-08-25T05:37:46;17.67;;;14.02;;
13163;SDS011;6647;53.688;10.746;2022-08-25T05:39:07;21.38;;;13.82;;
13163;SDS011;6647;53.688;10.746;2022-08-25T05:40:28;16.98;;;14.65;;
13163;SDS011;6647;53.688;10.746;2022-08-25T05:41:50;15.18;;;13.57;;
13163;SDS011;6647;53.688;10.746;2022-08-25T05:43:11;21.55;;;15.45;;
13163;SDS011;6647;53.688;10.746;2022-08-25T05:44:33;21.75;;;15.90;;
13163;SDS011;6647;53.688;10.746;2022-08-25T05:45:55;18.35;;;14.50;;
13163;SDS011;6647;53.688;10.746;2022-08-25T05:47:17;19.67;;;15.80;;
13163;SDS011;6647;53.688;10.746;2022-08-25T05:48:38;17.00;;;14.73;;
13163;SDS011;6647;53.688;10.746;2022-08-25T05:49:59;17.52;;;13.68;;
13163;SDS011;6647;53.688;10.746;2022-08-25T05:51:20;19.48;;;14.90;;
13163;SDS011;6647;53.688;10.746;2022-08-25T05:52:41;26.25;;;12.95;;
13163;SDS011;6647;53.688;10.746;2022-08-25T05:54:03;17.05;;;13.20;;
13163;SDS011;6647;53.688;10.746;2022-08-25T05:55:24;15.90;;;12.32;;
13163;SDS011;6647;53.688;10.746;2022-08-25T05:56:45;15.40;;;13.63;;
13163;SDS011;6647;53.688;10.746;2022-08-25T05:58:06;15.68;;;13.75;;
13163;SDS011;6647;53.688;10.746;2022-08-25T05:59:30;17.88;;;13.93;;
13163;SDS011;6647;53.688;10.746;2022-08-25T06:00:51;14.68;;;10.88;;
13163;SDS011;6647;53.688;10.746;2022-08-25T06:02:12;15.60;;;12.57;;
13163;SDS011;6647;53.688;10.746;2022-08-25T06:03:51;17.25;;;13.50;;
13163;SDS011;6647;53.688;10.746;2022-08-25T06:05:15;16.25;;;13.85;;
13163;SDS011;6647;53.688;10.746;2022-08-25T06:06:38;12.98;;;11.45;;
13163;SDS011;6647;53.688;10.746;2022-08-25T06:07:59;16.40;;;11.93;;
13163;SDS011;6647;53.688;10.746;2022-08-25T06:09:20;14.55;;;11.98;;
13163;SDS011;6647;53.688;10.746;2022-08-25T06:10:41;20.73;;;12.25;;
13163;SDS011;6647;53.688;10.746;2022-08-25T06:12:02;16.50;;;10.40;;
13163;SDS011;6647;53.688;10.746;2022-08-25T06:13:23;16.40;;;12.02;;
13163;SDS011;6647;53.688;10.746;2022-08-25T06:14:44;14.75;;;11.10;;
13163;SDS011;6647;53.688;10.746;2022-08-25T06:16:05;19.33;;;12.93;;
13163;SDS011;6647;53.688;10.746;2022-08-25T06:17:26;14.15;;;11.25;;
13163;SDS011;6647;53.688;10.746;2022-08-25T06:18:47;17.00;;;10.32;;
13163;SDS011;6647;53.688;10.746;2022-08-25T06:20:09;14.55;;;9.95;;
13163;SDS011;6647;53.688;10.746;2022-08-25T06:21:32;11.50;;;9.15;;
13163;SDS011;6647;53.688;10.746;2022-08-25T06:22:53;18.33;;;10.20;;
13163;SDS011;6647;53.688;10.746;2022-08-25T06:24:15;15.82;;;9.07;;
13163;SDS011;6647;53.688;10.746;2022-08-25T06:25:36;15.60;;;9.30;;
13163;SDS011;6647;53.688;10.746;2022-08-25T06:26:57;10.15;;;8.98;;
13163;SDS011;6647;53.688;10.746;2022-08-25T06:28:18;15.55;;;8.25;;
13163;SDS011;6647;53.688;10.746;2022-08-25T06:29:40;13.88;;;8.85;;
13163;SDS011;6647;53.688;10.746;2022-08-25T06:31:01;16.27;;;8.85;;
13163;SDS011;6647;53.688;10.746;2022-08-25T06:32:22;13.05;;;8.70;;
13163;SDS011;6647;53.688;10.746;2022-08-25T06:33:43;11.35;;;8.02;;
13163;SDS011;6647;53.688;10.746;2022-08-25T06:35:05;11.00;;;8.60;;
13163;SDS011;6647;53.688;10.746;2022-08-25T06:36:28;14.75;;;9.35;;
13163;SDS011;6647;53.688;10.746;2022-08-25T06:37:49;12.43;;;7.85;;
13163;SDS011;6647;53.688;10.746;2022-08-25T06:39:10;9.77;;;7.88;;
13163;SDS011;6647;53.688;10.746;2022-08-25T06:40:31;15.63;;;9.10;;
13163;SDS011;6647;53.688;10.746;2022-08-25T06:41:52;14.60;;;9.27;;
13163;SDS011;6647;53.688;10.746;2022-08-25T06:43:14;15.13;;;9.30;;
13163;SDS011;6647;53.688;10.746;2022-08-25T06:44:35;13.63;;;9.35;;
13163;SDS011;6647;53.688;10.746;2022-08-25T06:45:56;10.88;;;8.15;;
13163;SDS011;6647;53.688;10.746;2022-08-25T06:47:17;14.43;;;8.57;;
13163;SDS011;6647;53.688;10.746;2022-08-25T06:48:39;11.20;;;7.90;;
13163;SDS011;6647;53.688;10.746;2022-08-25T06:50:00;12.30;;;8.32;;
13163;SDS011;6647;53.688;10.746;2022-08-25T06:51:23;12.30;;;8.52;;
13163;SDS011;6647;53.688;10.746;2022-08-25T06:52:45;14.48;;;9.25;;
13163;SDS011;6647;53.688;10.746;2022-08-25T06:54:07;11.48;;;7.60;;
13163;SDS011;6647;53.688;10.746;2022-08-25T06:55:32;13.07;;;8.27;;
13163;SDS011;6647;53.688;10.746;2022-08-25T06:56:54;16.50;;;9.00;;
13163;SDS011;6647;53.688;10.746;2022-08-25T06:58:15;13.48;;;8.68;;
13163;SDS011;6647;53.688;10.746;2022-08-25T06:59:36;11.93;;;7.85;;
13163;SDS011;6647;53.688;10.746;2022-08-25T07:01:04;10.25;;;7.55;;
13163;SDS011;6647;53.688;10.746;2022-08-25T07:02:29;13.63;;;8.55;;
13163;SDS011;6647;53.688;10.746;2022-08-25T07:03:50;21.17;;;8.35;;
13163;SDS011;6647;53.688;10.746;2022-08-25T07:05:13;12.45;;;8.50;;
13163;SDS011;6647;53.688;10.746;2022-08-25T07:06:34;9.05;;;8.13;;
13163;SDS011;6647;53.688;10.746;2022-08-25T07:07:56;21.17;;;9.20;;
13163;SDS011;6647;53.688;10.746;2022-08-25T07:09:17;12.43;;;8.05;;
13163;SDS011;6647;53.688;10.746;2022-08-25T07:10:38;14.32;;;8.45;;
13163;SDS011;6647;53.688;10.746;2022-08-25T07:11:58;13.52;;;8.32;;
13163;SDS011;6647;53.688;10.746;2022-08-25T07:13:21;12.13;;;9.18;;
13163;SDS011;6647;53.688;10.746;2022-08-25T07:14:42;10.52;;;7.95;;
13163;SDS011;6647;53.688;10.746;2022-08-25T07:16:04;9.65;;;7.03;;
13163;SDS011;6647;53.688;10.746;2022-08-25T07:17:25;12.13;;;7.53;;
13163;SDS011;6647;53.688;10.746;2022-08-25T07:18:46;9.88;;;7.85;;
13163;SDS011;6647;53.688;10.746;2022-08-25T07:20:07;9.07;;;7.18;;
13163;SDS011;6647;53.688;10.746;2022-08-25T07:21:29;16.02;;;7.50;;
13163;SDS011;6647;53.688;10.746;2022-08-25T07:22:51;9.65;;;7.30;;
13163;SDS011;6647;53.688;10.746;2022-08-25T07:24:12;10.80;;;7.07;;
13163;SDS011;6647;53.688;10.746;2022-08-25T07:25:34;11.90;;;8.20;;
13163;SDS011;6647;53.688;10.746;2022-08-25T07:26:55;11.93;;;7.60;;
13163;SDS011;6647;53.688;10.746;2022-08-25T07:28:16;11.73;;;7.60;;
13163;SDS011;6647;53.688;10.746;2022-08-25T07:29:37;11.87;;;7.30;;
13163;SDS011;6647;53.688;10.746;2022-08-25T07:30:58;11.50;;;7.22;;
13163;SDS011;6647;53.688;10.746;2022-08-25T07:32:20;9.50;;;7.10;;
13163;SDS011;6647;53.688;10.746;2022-08-25T07:33:41;11.18;;;7.20;;
13163;SDS011;6647;53.688;10.746;2022-08-25T07:35:23;12.40;;;6.50;;
13163;SDS011;6647;53.688;10.746;2022-08-25T07:36:44;10.50;;;6.40;;
13163;SDS011;6647;53.688;10.746;2022-08-25T07:38:06;11.20;;;5.40;;
13163;SDS011;6647;53.688;10.746;2022-08-25T07:39:27;10.23;;;6.32;;
13163;SDS011;6647;53.688;10.746;2022-08-25T07:40:48;10.60;;;7.27;;
13163;SDS011;6647;53.688;10.746;2022-08-25T07:42:13;10.63;;;6.53;;
13163;SDS011;6647;53.688;10.746;2022-08-25T07:43:34;10.87;;;6.33;;
13163;SDS011;6647;53.688;10.746;2022-08-25T07:44:56;11.77;;;7.07;;
13163;SDS011;6647;53.688;10.746;2022-08-25T07:46:17;10.53;;;6.13;;
13163;SDS011;6647;53.688;10.746;2022-08-25T07:47:38;8.13;;;6.60;;
13163;SDS011;6647;53.688;10.746;2022-08-25T07:48:59;12.77;;;6.80;;
13163;SDS011;6647;53.688;10.746;2022-08-25T07:50:20;9.27;;;6.70;;
13163;SDS011;6647;53.688;10.746;2022-08-25T07:51:41;15.23;;;7.23;;
13163;SDS011;6647;53.688;10.746;2022-08-25T07:53:02;9.10;;;6.50;;
13163;SDS011;6647;53.688;10.746;2022-08-25T07:54:23;10.80;;;6.17;;
13163;SDS011;6647;53.688;10.746;2022-08-25T07:55:46;14.27;;;6.73;;
13163;SDS011;6647;53.688;10.746;2022-08-25T07:57:07;13.50;;;6.13;;
13163;SDS011;6647;53.688;10.746;2022-08-25T07:58:29;15.80;;;6.00;;
13163;SDS011;6647;53.688;10.746;2022-08-25T07:59:51;13.50;;;6.03;;
13163;SDS011;6647;53.688;10.746;2022-08-25T08:01:15;13.90;;;6.90;;
13163;SDS011;6647;53.688;10.746;2022-08-25T08:02:39;16.17;;;6.67;;
13163;SDS011;6647;53.688;10.746;2022-08-25T08:04:01;8.30;;;6.00;;
13163;SDS011;6647;53.688;10.746;2022-08-25T08:05:23;18.20;;;6.30;;
13163;SDS011;6647;53.688;10.746;2022-08-25T08:06:45;15.87;;;5.90;;
13163;SDS011;6647;53.688;10.746;2022-08-25T08:08:06;13.60;;;5.97;;
13163;SDS011;6647;53.688;10.746;2022-08-25T08:09:27;13.40;;;5.87;;